Time;durP1;ratioP1;P1;durP2;ratioP2;P2;SDS_P1;SDS_P2;PMS_P1;PMS_P2;Temp;Humidity;BMP_temperature;BMP_pressure;BME280_temperature;BME280_humidity;BME280_pressure;Samples;Min_cycle;Max_cycle;Signal;HPM_P1;HPM_P2
2021/01/31 00:00:53;;;;;;;83.20;39.48;;;;;;;7.97;52.74;98454.61;1812694;79;21169;-76
2021/01/31 00:03:27;;;;;;;81.45;37.28;;;;;;;7.97;52.81;98450.61;1812507;79;21283;-74
2021/01/31 00:05:58;;;;;;;67.42;32.80;;;;;;;8.01;52.80;98444.39;1812721;79;21058;-77
2021/01/31 00:08:26;;;;;;;56.77;28.90;;;;;;;8.05;52.77;98437.16;1812423;79;21485;-76
2021/01/31 00:10:54;;;;;;;67.37;34.35;;;;;;;8.12;52.70;98436.69;1812633;79;21607;-77
2021/01/31 00:13:22;;;;;;;63.78;33.02;;;;;;;8.15;52.62;98436.83;1812750;79;21195;-76
2021/01/31 00:15:51;;;;;;;65.57;32.95;;;;;;;8.18;52.45;98439.63;1812291;79;21878;-76
2021/01/31 00:18:22;;;;;;;80.28;38.70;;;;;;;8.13;52.42;98441.54;1812041;79;21146;-76
2021/01/31 00:20:52;;;;;;;98.70;45.08;;;;;;;8.13;52.44;98446.36;1811483;79;21181;-75
2021/01/31 00:23:19;;;;;;;88.50;42.25;;;;;;;8.24;52.23;98446.85;1812168;79;21197;-77
2021/01/31 00:25:48;;;;;;;74.25;36.20;;;;;;;8.31;52.10;98451.71;1783645;79;21177;-75
2021/01/31 00:28:17;;;;;;;55.58;30.12;;;;;;;8.31;52.08;98463.72;1812570;79;22051;-76
2021/01/31 00:30:46;;;;;;;59.00;28.70;;;;;;;8.37;51.94;98457.66;1812232;78;21184;-75
2021/01/31 00:33:19;;;;;;;50.25;28.12;;;;;;;8.36;51.95;98459.51;1811705;79;21170;-78
2021/01/31 00:35:47;;;;;;;48.87;26.10;;;;;;;8.36;51.91;98473.33;1812582;79;21490;-75
2021/01/31 00:38:17;;;;;;;40.03;21.70;;;;;;;8.31;52.01;98474.39;1812410;79;21168;-74
2021/01/31 00:40:45;;;;;;;38.20;23.05;;;;;;;8.42;51.79;98466.42;1812484;79;21381;-74
2021/01/31 00:43:15;;;;;;;37.70;22.05;;;;;;;8.33;51.91;98475.03;1812537;79;21200;-75
2021/01/31 00:45:42;;;;;;;44.77;24.85;;;;;;;8.28;52.06;98484.13;1812540;79;21399;-76
2021/01/31 00:48:11;;;;;;;47.65;26.12;;;;;;;8.27;52.11;98508.64;1812728;79;21066;-74
2021/01/31 00:50:39;;;;;;;39.23;23.32;;;;;;;8.28;52.08;98504.13;1812438;79;21169;-75
2021/01/31 00:53:11;;;;;;;44.93;25.60;;;;;;;8.31;52.01;98506.39;1812527;79;21424;-75
2021/01/31 00:55:41;;;;;;;42.98;26.30;;;;;;;8.29;52.04;98517.78;1812364;79;21169;-75
2021/01/31 00:58:08;;;;;;;40.55;23.27;;;;;;;8.28;52.04;98507.63;1812398;78;21176;-75
2021/01/31 01:00:40;;;;;;;40.25;20.17;;;;;;;8.29;52.01;98511.11;1812344;79;21125;-74
2021/01/31 01:03:09;;;;;;;37.00;22.52;;;;;;;8.29;51.96;98511.11;1812258;79;21385;-75
2021/01/31 01:05:45;;;;;;;39.15;24.57;;;;;;;8.19;52.22;98503.44;1801298;79;21455;-75
2021/01/31 01:08:13;;;;;;;42.33;26.60;;;;;;;8.27;52.07;98490.48;1812461;79;21074;-76
2021/01/31 01:10:41;;;;;;;45.43;28.67;;;;;;;8.28;52.03;98489.46;1812430;79;21189;-74
2021/01/31 01:13:08;;;;;;;47.25;27.75;;;;;;;8.28;52.04;98496.12;1812421;79;21153;-75
2021/01/31 01:15:36;;;;;;;41.85;26.35;;;;;;;8.26;52.07;98513.64;1812297;79;21178;-75
2021/01/31 01:18:04;;;;;;;39.40;24.52;;;;;;;8.26;52.02;98513.64;1812064;79;21812;-74
2021/01/31 01:20:31;;;;;;;39.73;24.25;;;;;;;8.23;52.10;98526.55;1812045;79;21125;-75
2021/01/31 01:23:00;;;;;;;39.63;19.62;;;;;;;8.21;52.07;98520.05;1812230;79;21160;-75
2021/01/31 01:25:27;;;;;;;36.95;22.10;;;;;;;8.25;52.04;98523.17;1812223;79;21509;-75
2021/01/31 01:27:55;;;;;;;34.43;20.95;;;;;;;8.28;52.01;98526.80;1811735;79;21157;-76
2021/01/31 01:30:29;;;;;;;35.33;22.00;;;;;;;8.34;51.94;98522.84;1812270;79;21137;-75
2021/01/31 01:33:00;;;;;;;34.98;21.57;;;;;;;8.36;51.88;98523.53;1812320;79;20987;-75
2021/01/31 01:35:28;;;;;;;36.28;21.20;;;;;;;8.37;51.85;98526.52;1812142;79;21141;-75
2021/01/31 01:37:56;;;;;;;32.73;20.05;;;;;;;8.38;51.77;98521.48;1812063;79;21209;-76
2021/01/31 01:40:29;;;;;;;33.85;20.12;;;;;;;8.38;51.75;98526.00;1811779;79;21161;-74
2021/01/31 01:42:57;;;;;;;32.17;19.98;;;;;;;8.37;51.70;98519.84;1811859;79;22196;-75
2021/01/31 01:45:25;;;;;;;33.50;18.90;;;;;;;8.32;51.78;98517.41;1812212;79;21513;-74
2021/01/31 01:47:55;;;;;;;28.07;17.25;;;;;;;8.33;51.83;98525.72;1812208;79;21145;-74
2021/01/31 01:50:51;;;;;;;36.13;20.48;;;;;;;8.32;51.82;98520.07;1812754;79;21051;-75
2021/01/31 01:53:21;;;;;;;40.85;22.58;;;;;;;8.32;51.84;98524.08;1812457;79;21588;-75
2021/01/31 01:56:12;;;;;;;39.35;21.65;;;;;;;8.32;51.87;98530.23;1811859;79;22221;-77
2021/01/31 01:58:40;;;;;;;35.05;21.20;;;;;;;8.35;51.88;98542.34;1811595;79;21193;-74
2021/01/31 02:01:08;;;;;;;34.98;21.10;;;;;;;8.37;51.86;98553.19;1812037;79;21181;-76
2021/01/31 02:03:39;;;;;;;32.17;18.48;;;;;;;8.39;51.78;98554.32;1811444;79;21196;-75
2021/01/31 02:06:15;;;;;;;31.05;17.52;;;;;;;8.39;51.74;98555.66;1812400;79;21173;-76
2021/01/31 02:08:43;;;;;;;30.37;17.32;;;;;;;8.38;51.76;98551.34;1811764;79;21357;-76
2021/01/31 02:11:13;;;;;;;27.02;16.12;;;;;;;8.36;51.80;98544.87;1811866;79;21204;-77
2021/01/31 02:13:42;;;;;;;28.07;17.30;;;;;;;8.35;51.80;98549.02;1812120;79;21142;-77
2021/01/31 02:16:36;;;;;;;30.48;18.92;;;;;;;8.36;51.83;98554.69;1812340;79;21118;-76
2021/01/31 02:19:27;;;;;;;29.60;17.37;;;;;;;8.38;51.85;98551.34;1812646;79;21553;-76
2021/01/31 02:22:06;;;;;;;24.95;15.28;;;;;;;8.38;51.79;98555.34;1804900;79;21822;-75
2021/01/31 02:24:39;;;;;;;24.98;14.98;;;;;;;8.40;51.73;98558.63;1811674;79;21172;-75
2021/01/31 02:27:39;;;;;;;24.05;15.23;;;;;;;8.43;51.65;98568.93;1812686;79;21177;-75
2021/01/31 02:30:15;;;;;;;22.05;13.45;;;;;;;8.46;51.60;98569.07;1812479;79;21188;-76
2021/01/31 02:33:23;;;;;;;22.40;14.68;;;;;;;8.47;51.51;98556.86;1811917;79;21172;-75
2021/01/31 02:35:54;;;;;;;23.38;14.40;;;;;;;8.56;51.25;98554.38;1812365;79;21377;-77
2021/01/31 02:38:30;;;;;;;24.20;16.07;;;;;;;8.49;51.47;98551.33;1783890;79;21075;-76
2021/01/31 02:41:07;;;;;;;27.32;16.65;;;;;;;8.47;51.51;98557.38;1812619;79;21659;-75
2021/01/31 02:43:43;;;;;;;26.17;15.60;;;;;;;8.48;51.48;98563.84;1812811;79;21126;-77
2021/01/31 02:46:25;;;;;;;21.15;13.88;;;;;;;8.49;51.48;98591.35;1812470;79;21584;-77
2021/01/31 02:49:05;;;;;;;17.90;11.95;;;;;;;8.50;51.46;98573.02;1812452;79;22744;-76
2021/01/31 02:51:50;;;;;;;18.42;12.55;;;;;;;8.50;51.40;98595.19;1812430;79;21181;-76
2021/01/31 02:54:29;;;;;;;15.55;9.60;;;;;;;8.49;51.37;98593.51;1812510;79;21185;-76
2021/01/31 02:57:01;;;;;;;14.73;9.95;;;;;;;8.47;51.37;98556.86;1812304;79;21173;-76
2021/01/31 02:59:37;;;;;;;15.18;9.05;;;;;;;8.46;51.42;98565.89;1811514;79;21204;-77
2021/01/31 03:02:09;;;;;;;14.20;9.78;;;;;;;8.47;51.39;98587.55;1812691;79;21810;-78
2021/01/31 03:04:48;;;;;;;12.82;8.78;;;;;;;8.46;51.36;98601.09;1812428;79;21053;-75
2021/01/31 03:07:23;;;;;;;11.68;8.30;;;;;;;8.45;51.31;98608.75;1812505;78;21563;-76
2021/01/31 03:10:09;;;;;;;11.48;8.38;;;;;;;8.45;51.25;98595.41;1812502;78;21169;-76
2021/01/31 03:12:54;;;;;;;13.13;8.93;;;;;;;8.38;51.27;98598.03;1799333;79;21145;-75
2021/01/31 03:15:24;;;;;;;13.05;9.48;;;;;;;8.45;50.92;98619.42;1812691;79;22441;-75
2021/01/31 03:18:15;;;;;;;14.40;10.48;;;;;;;8.45;50.82;98621.61;1812519;79;21169;-75
2021/01/31 03:20:54;;;;;;;17.30;11.55;;;;;;;8.46;50.73;98630.44;1812226;79;21188;-75
2021/01/31 03:23:28;;;;;;;15.88;11.57;;;;;;;8.43;50.63;98648.97;1805561;79;21362;-75
2021/01/31 03:26:15;;;;;;;16.00;12.13;;;;;;;8.39;50.58;98654.36;1726092;82;21178;-76
2021/01/31 03:28:42;;;;;;;19.35;13.13;;;;;;;8.41;50.27;98674.20;1724463;83;22013;-75
2021/01/31 03:31:10;;;;;;;22.52;14.73;;;;;;;8.36;50.23;98698.75;1774081;79;21188;-75
2021/01/31 03:33:45;;;;;;;23.12;15.80;;;;;;;8.32;50.12;98706.29;1812506;79;21189;-75
2021/01/31 03:36:12;;;;;;;24.80;15.20;;;;;;;8.29;50.04;98707.16;1812872;79;21784;-75
2021/01/31 03:38:46;;;;;;;25.25;16.25;;;;;;;8.25;49.52;98709.88;1783633;79;21153;-75
2021/01/31 03:41:18;;;;;;;24.23;15.78;;;;;;;8.41;48.85;98730.23;1812808;79;21361;-75
2021/01/31 03:43:45;;;;;;;28.00;18.27;;;;;;;8.49;48.41;98742.93;1783761;79;21428;-78
2021/01/31 03:46:41;;;;;;;22.80;15.23;;;;;;;8.16;48.88;98740.33;1812953;79;21164;-76
2021/01/31 03:49:20;;;;;;;25.45;14.68;;;;;;;8.07;48.73;98729.75;1812663;79;21177;-75
2021/01/31 03:51:48;;;;;;;23.52;15.72;;;;;;;8.02;48.54;98737.48;1812598;78;22033;-76
2021/01/31 03:54:16;;;;;;;22.75;14.78;;;;;;;8.29;47.91;98753.33;1812604;79;22643;-77
2021/01/31 03:57:05;;;;;;;23.30;15.05;;;;;;;7.96;48.00;98767.55;1783661;79;21213;-77
2021/01/31 03:59:41;;;;;;;23.95;14.70;;;;;;;7.85;47.65;98777.31;1812362;79;21632;-76
2021/01/31 04:02:08;;;;;;;20.92;14.00;;;;;;;7.76;47.39;98790.39;1812481;79;21152;-77
2021/01/31 04:04:42;;;;;;;22.87;14.68;;;;;;;7.81;46.60;98793.34;1783470;79;21646;-75
2021/01/31 04:07:10;;;;;;;20.75;14.68;;;;;;;8.03;45.63;98795.12;1812797;79;21358;-75
2021/01/31 04:09:39;;;;;;;19.65;13.05;;;;;;;7.65;45.87;98817.48;1812574;79;21564;-76
2021/01/31 04:12:09;;;;;;;21.70;14.58;;;;;;;7.43;46.01;98837.30;1812835;79;21165;-76
2021/01/31 04:14:54;;;;;;;23.55;15.63;;;;;;;7.34;46.01;98842.36;1812663;79;21177;-78
2021/01/31 04:17:22;;;;;;;21.87;14.53;;;;;;;7.28;45.68;98854.55;1783872;79;21161;-78
2021/01/31 04:19:50;;;;;;;20.15;14.73;;;;;;;7.20;45.77;98851.94;1812047;79;21271;-78
2021/01/31 04:22:17;;;;;;;22.90;15.70;;;;;;;7.13;45.40;98851.00;1809806;79;21529;-78
2021/01/31 04:24:49;;;;;;;18.20;13.05;;;;;;;7.04;45.36;98858.20;1779732;80;21200;-78
2021/01/31 04:27:17;;;;;;;23.90;17.17;;;;;;;7.03;45.37;98874.33;1783325;80;21177;-79
2021/01/31 04:29:45;;;;;;;23.47;15.68;;;;;;;6.97;45.59;98878.52;1812009;79;21747;-76
2021/01/31 04:32:14;;;;;;;24.90;16.40;;;;;;;6.95;45.40;98890.33;1811946;79;21145;-79
2021/01/31 04:34:42;;;;;;;22.42;15.08;;;;;;;6.89;45.35;98886.53;1811632;79;21165;-80
2021/01/31 04:37:10;;;;;;;23.20;16.00;;;;;;;6.83;45.33;98893.89;1811448;79;21344;-78
2021/01/31 04:39:38;;;;;;;23.02;16.42;;;;;;;6.78;45.23;98897.06;1811592;79;21157;-77
2021/01/31 04:42:06;;;;;;;25.40;17.15;;;;;;;6.74;45.20;98909.55;1812348;79;21548;-75
2021/01/31 04:44:33;;;;;;;27.13;16.87;;;;;;;6.82;45.25;98915.69;1781979;79;22281;-76
2021/01/31 04:47:11;;;;;;;23.80;17.25;;;;;;;6.96;44.85;98915.97;1811948;79;21672;-76
2021/01/31 04:50:21;;;;;;;21.87;15.65;;;;;;;7.22;44.52;98918.32;1784372;80;21188;-75
2021/01/31 04:53:00;;;;;;;27.58;16.27;;;;;;;7.27;44.13;98933.30;1783401;80;21161;-75
2021/01/31 04:55:56;;;;;;;21.20;15.05;;;;;;;7.28;43.78;98948.27;1806626;79;21533;-77
2021/01/31 04:58:35;;;;;;;23.00;15.28;;;;;;;7.29;43.78;98964.57;1812164;79;22616;-77
2021/01/31 05:01:08;;;;;;;24.05;15.43;;;;;;;7.29;43.92;98977.89;1811622;79;21173;-77
2021/01/31 05:03:42;;;;;;;20.75;14.93;;;;;;;7.29;43.86;98987.21;1783204;80;21380;-77
2021/01/31 05:06:16;;;;;;;22.32;14.47;;;;;;;7.31;44.00;98991.38;1784195;80;21177;-77
2021/01/31 05:08:48;;;;;;;20.48;13.98;;;;;;;7.32;44.06;99002.35;1812444;79;21154;-76
2021/01/31 05:11:37;;;;;;;22.25;14.45;;;;;;;7.33;43.73;99003.17;1812190;79;21667;-76
2021/01/31 05:14:35;;;;;;;17.17;11.63;;;;;;;7.34;43.60;99016.31;1812137;79;21174;-76
2021/01/31 05:17:03;;;;;;;16.02;12.03;;;;;;;7.34;43.38;99022.14;1762618;79;21594;-77
2021/01/31 05:19:31;;;;;;;15.88;12.15;;;;;;;7.09;44.00;99036.89;1761601;80;21215;-77
2021/01/31 05:21:59;;;;;;;18.40;11.30;;;;;;;7.25;43.75;99039.16;1780377;80;21181;-77
2021/01/31 05:24:26;;;;;;;14.18;11.12;;;;;;;7.23;43.17;99049.99;1791437;80;21220;-77
2021/01/31 05:27:00;;;;;;;14.25;10.80;;;;;;;6.93;43.49;99052.88;1792233;80;21196;-77
2021/01/31 05:29:32;;;;;;;13.28;10.65;;;;;;;6.82;43.44;99058.57;1792771;80;21200;-77
2021/01/31 05:32:10;;;;;;;13.05;9.58;;;;;;;7.05;43.45;99068.02;1792170;80;21657;-78
2021/01/31 05:34:57;;;;;;;14.93;10.72;;;;;;;6.66;43.99;99077.20;1792796;80;21555;-76
2021/01/31 05:37:44;;;;;;;13.30;9.38;;;;;;;6.59;44.18;99084.53;1792402;80;21631;-76
2021/01/31 05:40:15;;;;;;;11.88;8.58;;;;;;;7.06;43.29;99089.64;1791611;80;21181;-76
2021/01/31 05:42:44;;;;;;;10.82;8.80;;;;;;;7.10;42.97;99097.12;1776773;80;21186;-76
2021/01/31 05:45:32;;;;;;;13.30;9.43;;;;;;;7.12;42.85;99109.75;1756331;80;21162;-78
2021/01/31 05:48:02;;;;;;;10.90;8.50;;;;;;;7.11;42.90;99116.58;1777514;80;21177;-78
2021/01/31 05:50:37;;;;;;;15.60;9.08;;;;;;;7.09;42.61;99106.11;1780331;80;21366;-78
2021/01/31 05:53:33;;;;;;;10.28;8.10;;;;;;;7.08;42.74;99111.08;1780394;80;21129;-77
2021/01/31 05:56:28;;;;;;;11.38;7.78;;;;;;;7.09;42.73;99120.75;1779312;80;21180;-77
2021/01/31 05:59:06;;;;;;;8.48;6.10;;;;;;;7.04;42.68;99128.42;1779001;80;21217;-77
2021/01/31 06:01:50;;;;;;;7.95;6.85;;;;;;;7.08;42.35;99135.05;1780478;80;21576;-76
2021/01/31 06:04:18;;;;;;;11.55;7.25;;;;;;;7.04;42.49;99141.73;1802791;79;21809;-77
2021/01/31 06:06:46;;;;;;;8.95;7.05;;;;;;;7.03;42.73;99149.36;1811314;79;21508;-76
2021/01/31 06:09:42;;;;;;;8.75;6.53;;;;;;;7.05;42.60;99158.53;1749581;80;21399;-75
2021/01/31 06:12:23;;;;;;;9.68;7.62;;;;;;;7.08;42.62;99176.31;1782764;80;21575;-77
2021/01/31 06:15:09;;;;;;;12.35;8.38;;;;;;;7.09;42.38;99180.66;1779359;80;21198;-77
2021/01/31 06:17:39;;;;;;;11.75;8.58;;;;;;;7.08;42.47;99190.95;1783917;80;21378;-76
2021/01/31 06:20:26;;;;;;;10.90;7.58;;;;;;;7.08;42.57;99196.78;1779707;80;21214;-77
2021/01/31 06:22:56;;;;;;;11.73;8.38;;;;;;;7.08;42.72;99205.60;1784393;80;21348;-78
2021/01/31 06:25:36;;;;;;;10.32;6.45;;;;;;;7.08;42.63;99218.91;1779672;80;21227;-77
2021/01/31 06:28:18;;;;;;;9.50;6.67;;;;;;;6.80;43.18;99233.54;1783557;80;21181;-78
2021/01/31 06:31:32;;;;;;;9.70;7.17;;;;;;;6.54;44.03;99234.50;1779430;80;21214;-77
2021/01/31 06:33:59;;;;;;;10.98;6.83;;;;;;;6.53;44.06;99235.97;1783099;80;21185;-77
2021/01/31 06:36:42;;;;;;;8.60;6.20;;;;;;;6.54;44.21;99249.60;1779452;80;21175;-77
2021/01/31 06:39:21;;;;;;;10.23;7.60;;;;;;;6.54;44.08;99255.78;1782803;80;21181;-77
2021/01/31 06:42:00;;;;;;;8.50;6.60;;;;;;;6.54;44.21;99263.77;1810794;79;21360;-78
2021/01/31 06:45:04;;;;;;;10.43;7.10;;;;;;;6.56;44.31;99272.41;1778791;80;21902;-78
2021/01/31 06:48:15;;;;;;;9.60;6.62;;;;;;;6.58;44.37;99281.05;1811932;79;21177;-78
2021/01/31 06:51:04;;;;;;;11.08;7.40;;;;;;;6.63;44.38;99289.87;1781557;80;21188;-77
2021/01/31 06:53:54;;;;;;;;;;;;;;;6.65;44.31;99296.38;1768387;80;21000;-79
2021/01/31 06:56:31;;;;;;;10.50;6.45;;;;;;;6.66;44.29;99294.05;1765552;81;20637;-77
2021/01/31 06:59:27;;;;;;;9.88;6.60;;;;;;;6.66;44.11;99308.69;1773961;80;21385;-77
2021/01/31 07:02:17;;;;;;;11.35;7.70;;;;;;;6.66;44.17;99312.67;1774143;80;21148;-78
2021/01/31 07:05:24;;;;;;;11.00;7.23;;;;;;;6.67;44.09;99324.48;1796103;79;21101;-76
2021/01/31 07:08:03;;;;;;;10.78;7.83;;;;;;;6.68;44.14;99330.16;1792460;79;21304;-78
2021/01/31 07:11:14;;;;;;;11.40;7.75;;;;;;;6.69;44.03;99346.45;1763190;81;21182;-79
2021/01/31 07:13:51;;;;;;;11.63;8.80;;;;;;;6.69;43.99;99348.28;1763104;81;21503;-78
2021/01/31 07:16:30;;;;;;;9.65;7.37;;;;;;;6.70;44.07;99357.93;1740549;79;21239;-78
2021/01/31 07:19:27;;;;;;;11.50;8.45;;;;;;;6.69;44.18;99365.08;1763621;81;21192;-77
2021/01/31 07:22:22;;;;;;;8.65;6.90;;;;;;;6.70;44.13;99357.43;1751405;80;21209;-78
2021/01/31 07:24:57;;;;;;;10.85;8.05;;;;;;;6.73;44.04;99365.60;1753337;80;21139;-76
2021/01/31 07:27:36;;;;;;;10.60;7.30;;;;;;;6.73;44.20;99367.77;1780431;79;21374;-79
2021/01/31 07:30:16;;;;;;;13.20;8.63;;;;;;;6.76;43.92;99365.27;1784760;80;21552;-78
2021/01/31 07:33:14;;;;;;;10.15;7.40;;;;;;;6.73;43.74;99370.42;1762450;81;21219;-78
2021/01/31 07:35:54;;;;;;;9.68;6.78;;;;;;;6.74;43.62;99367.27;1764821;79;21148;-79
2021/01/31 07:38:39;;;;;;;8.35;7.08;;;;;;;6.74;43.84;99380.57;1779382;80;21167;-78
2021/01/31 07:41:08;;;;;;;10.53;7.33;;;;;;;6.75;43.68;99384.89;1767582;80;21344;-78
2021/01/31 07:43:36;;;;;;;8.38;7.08;;;;;;;6.71;43.38;99392.86;1764349;79;21189;-76
2021/01/31 07:46:12;;;;;;;8.05;6.25;;;;;;;6.69;43.24;99400.17;1777538;79;21565;-78
2021/01/31 07:48:53;;;;;;;9.33;6.78;;;;;;;6.69;43.38;99397.52;1777997;79;21176;-77
2021/01/31 07:51:30;;;;;;;8.25;6.50;;;;;;;6.71;43.19;99410.15;1793771;79;21674;-77
2021/01/31 07:53:58;;;;;;;11.05;7.10;;;;;;;6.70;43.44;99403.17;1780607;79;21818;-77
2021/01/31 07:56:33;;;;;;;9.58;6.87;;;;;;;6.71;43.69;99416.30;1738851;79;21189;-77
2021/01/31 07:59:15;;;;;;;9.63;6.72;;;;;;;6.73;43.73;99418.83;1795619;79;21548;-78
2021/01/31 08:01:50;;;;;;;6.92;5.80;;;;;;;6.77;43.57;99423.67;1795573;79;21077;-77
2021/01/31 08:04:23;;;;;;;10.30;6.70;;;;;;;6.79;43.42;99428.83;1795296;79;21747;-76
2021/01/31 08:06:58;;;;;;;10.88;6.85;;;;;;;6.78;43.47;99435.15;1794641;79;22706;-78
2021/01/31 08:09:32;;;;;;;9.18;6.50;;;;;;;6.79;43.61;99447.45;1771849;79;21697;-77
2021/01/31 08:12:09;;;;;;;9.68;7.30;;;;;;;6.80;43.42;99453.94;1762111;81;21212;-77
2021/01/31 08:15:10;;;;;;;9.23;7.12;;;;;;;6.83;43.55;99460.78;1765012;79;21121;-78
2021/01/31 08:17:45;;;;;;;9.45;6.72;;;;;;;6.83;43.22;99463.45;1766330;79;21125;-77
2021/01/31 08:20:30;;;;;;;9.35;6.92;;;;;;;6.86;43.58;99467.14;1795417;79;21435;-77
2021/01/31 08:23:08;;;;;;;12.10;7.67;;;;;;;6.88;43.39;99465.14;1734032;79;21137;-78
2021/01/31 08:26:01;;;;;;;10.55;8.45;;;;;;;6.89;43.24;99465.47;1793985;79;21117;-77
2021/01/31 08:28:30;;;;;;;10.75;7.58;;;;;;;6.95;43.34;99466.65;1780128;80;21112;-77
2021/01/31 08:31:15;;;;;;;11.60;7.70;;;;;;;7.01;42.79;99474.85;1768963;80;21101;-77
2021/01/31 08:33:44;;;;;;;9.13;6.28;;;;;;;7.04;42.80;99477.67;1758599;80;21210;-78
2021/01/31 08:36:22;;;;;;;9.60;7.25;;;;;;;7.03;42.68;99488.83;1775659;80;21153;-78
2021/01/31 08:38:54;;;;;;;11.15;7.70;;;;;;;7.04;42.50;99489.19;1754683;80;21489;-77
2021/01/31 08:41:30;;;;;;;11.38;7.10;;;;;;;7.05;42.47;99493.52;1762894;80;21221;-77
2021/01/31 08:44:13;;;;;;;11.48;7.65;;;;;;;7.08;42.26;99498.50;1780856;79;21170;-77
2021/01/31 08:46:59;;;;;;;11.05;7.55;;;;;;;7.12;42.22;99519.83;1749959;81;21778;-78
2021/01/31 08:49:27;;;;;;;11.68;6.85;;;;;;;7.15;42.50;99521.84;1778352;80;21320;-77
2021/01/31 08:52:05;;;;;;;10.98;8.08;;;;;;;7.18;42.45;99520.21;1778276;80;21174;-77
2021/01/31 08:54:33;;;;;;;10.28;7.00;;;;;;;7.19;42.44;99528.53;1777140;80;21201;-77
2021/01/31 08:57:04;;;;;;;11.33;7.00;;;;;;;7.19;42.21;99533.36;1783796;79;21365;-77
2021/01/31 08:59:35;;;;;;;10.32;7.22;;;;;;;7.20;42.19;99537.68;1778737;80;21351;-77
2021/01/31 09:02:12;;;;;;;9.08;6.42;;;;;;;7.22;42.09;99541.51;1789775;79;21127;-77
2021/01/31 09:04:46;;;;;;;11.73;7.83;;;;;;;7.20;42.11;99544.84;1773462;80;21117;-78
2021/01/31 09:07:24;;;;;;;10.68;7.42;;;;;;;7.18;42.25;99553.00;1781863;79;21165;-77
2021/01/31 09:09:57;;;;;;;13.78;8.70;;;;;;;7.20;42.44;99554.16;1787259;79;21208;-78
2021/01/31 09:12:25;;;;;;;13.65;9.20;;;;;;;7.22;42.62;99569.47;1802494;79;21291;-78
2021/01/31 09:15:09;;;;;;;10.50;7.30;;;;;;;7.23;42.33;99569.84;1779101;79;21207;-77
2021/01/31 09:17:37;;;;;;;10.63;7.05;;;;;;;7.20;42.09;99564.31;1781739;79;21473;-77
2021/01/31 09:20:19;;;;;;;10.85;7.60;;;;;;;7.18;42.20;99571.64;1779990;80;21110;-78
2021/01/31 09:22:49;;;;;;;9.98;7.20;;;;;;;7.18;42.44;99582.80;1778942;80;21623;-77
2021/01/31 09:25:20;;;;;;;9.78;7.10;;;;;;;7.18;42.04;99586.79;1783610;79;21349;-77
2021/01/31 09:28:02;;;;;;;10.85;7.30;;;;;;;7.16;42.02;99586.92;1784981;80;21478;-77
2021/01/31 09:30:30;;;;;;;13.45;8.18;;;;;;;7.17;42.31;99586.42;1785145;80;21252;-77
2021/01/31 09:33:13;;;;;;;12.63;8.23;;;;;;;7.09;42.78;99596.55;1785519;80;21193;-77
2021/01/31 09:35:41;;;;;;;12.58;8.05;;;;;;;7.06;42.62;99595.02;1767916;80;21177;-76
2021/01/31 09:38:28;;;;;;;11.18;7.97;;;;;;;7.06;42.80;99607.02;1779956;79;21549;-76
2021/01/31 09:40:57;;;;;;;13.90;9.15;;;;;;;7.08;42.82;99614.33;1811107;79;21048;-76
2021/01/31 09:43:28;;;;;;;12.23;8.73;;;;;;;7.12;43.19;99612.20;1811278;79;21556;-77
2021/01/31 09:45:58;;;;;;;12.75;9.10;;;;;;;7.18;43.37;99625.41;1782108;79;21222;-77
2021/01/31 09:48:30;;;;;;;14.03;8.48;;;;;;;7.21;43.46;99626.41;1812093;79;21106;-78
2021/01/31 09:51:03;;;;;;;13.48;8.93;;;;;;;7.24;43.35;99624.77;1811936;79;21375;-77
2021/01/31 09:53:42;;;;;;;11.90;8.15;;;;;;;7.31;43.33;99631.98;1811872;79;21138;-77
2021/01/31 09:56:35;;;;;;;12.82;8.70;;;;;;;7.33;43.15;99633.15;1811616;79;21212;-77
2021/01/31 09:59:02;;;;;;;12.30;9.13;;;;;;;7.53;42.83;99632.41;1778223;79;21191;-77
2021/01/31 10:01:30;;;;;;;15.25;9.13;;;;;;;7.47;42.97;99641.05;1782407;79;21609;-78
2021/01/31 10:04:02;;;;;;;12.73;8.53;;;;;;;7.46;43.16;99641.55;1782872;79;21352;-78
2021/01/31 10:06:42;;;;;;;16.55;9.88;;;;;;;7.48;43.12;99650.20;1796757;79;21062;-78
2021/01/31 10:09:10;;;;;;;18.15;10.93;;;;;;;7.49;43.10;99650.54;1784370;79;21196;-78
2021/01/31 10:11:47;;;;;;;15.65;9.98;;;;;;;7.52;43.14;99653.40;1778955;80;21641;-76
2021/01/31 10:14:44;;;;;;;13.78;8.93;;;;;;;7.53;43.33;99661.73;1779829;80;21149;-77
2021/01/31 10:17:16;;;;;;;13.20;8.70;;;;;;;7.56;43.09;99667.58;1780498;80;22023;-77
2021/01/31 10:19:44;;;;;;;11.83;8.80;;;;;;;7.56;42.75;99666.25;1783928;80;21104;-77
2021/01/31 10:22:17;;;;;;;13.30;9.05;;;;;;;7.57;42.69;99669.25;1779379;80;21191;-77
2021/01/31 10:24:47;;;;;;;14.90;9.83;;;;;;;7.59;42.77;99667.27;1758622;80;21192;-76
2021/01/31 10:27:28;;;;;;;13.38;9.00;;;;;;;7.65;42.58;99658.30;1775480;79;21190;-77
2021/01/31 10:30:01;;;;;;;15.00;10.13;;;;;;;7.72;42.80;99661.98;1777407;80;21240;-79
2021/01/31 10:32:39;;;;;;;13.00;8.18;;;;;;;7.85;42.76;99659.72;1775151;80;21197;-79
2021/01/31 10:35:31;;;;;;;11.12;8.08;;;;;;;7.98;42.63;99664.61;1811066;78;21740;-79
2021/01/31 10:38:26;;;;;;;11.73;7.58;;;;;;;8.11;42.52;99677.83;1810235;79;21209;-78
2021/01/31 10:40:55;;;;;;;13.05;7.87;;;;;;;8.16;41.51;99676.01;1744099;82;21180;-78
2021/01/31 10:43:23;;;;;;;11.35;7.53;;;;;;;8.18;41.45;99682.03;1751486;80;21790;-78
2021/01/31 10:45:51;;;;;;;12.78;8.30;;;;;;;8.21;41.51;99680.86;1777592;80;21684;-78
2021/01/31 10:48:20;;;;;;;10.50;7.15;;;;;;;8.18;41.12;99683.36;1777629;80;21604;-78
2021/01/31 10:50:48;;;;;;;12.05;7.87;;;;;;;8.16;41.07;99695.18;1777320;80;21398;-77
2021/01/31 10:53:16;;;;;;;12.13;8.20;;;;;;;8.13;41.29;99686.52;1783940;80;21600;-78
2021/01/31 10:55:44;;;;;;;10.58;7.95;;;;;;;8.11;41.26;99688.49;1777689;80;22211;-78
2021/01/31 10:58:12;;;;;;;11.22;8.28;;;;;;;8.02;41.18;99691.30;1754569;80;21202;-78
2021/01/31 11:00:40;;;;;;;11.63;8.60;;;;;;;7.99;41.47;99684.44;1776073;80;21213;-78
2021/01/31 11:03:08;;;;;;;13.32;8.20;;;;;;;7.96;41.34;99694.61;1750253;80;21198;-78
2021/01/31 11:05:35;;;;;;;11.10;7.53;;;;;;;7.94;41.53;99696.09;1754043;80;21685;-77
2021/01/31 11:08:04;;;;;;;11.08;7.75;;;;;;;7.94;41.54;99700.59;1762863;80;21216;-77
2021/01/31 11:10:32;;;;;;;12.60;7.75;;;;;;;7.94;41.66;99708.09;1782105;79;21018;-77
2021/01/31 11:13:01;;;;;;;14.33;7.60;;;;;;;7.94;41.58;99708.09;1773846;79;21166;-77
2021/01/31 11:15:29;;;;;;;9.85;7.47;;;;;;;7.93;41.32;99708.25;1789310;80;21097;-78
2021/01/31 11:17:58;;;;;;;10.70;7.47;;;;;;;7.91;40.98;99711.59;1788887;79;21225;-78
2021/01/31 11:20:26;;;;;;;12.58;8.08;;;;;;;7.87;41.21;99710.56;1778401;79;21427;-79
2021/01/31 11:22:54;;;;;;;13.98;8.63;;;;;;;7.87;41.44;99709.73;1774032;79;21610;-78
2021/01/31 11:25:22;;;;;;;11.43;7.80;;;;;;;7.86;41.69;99712.07;1792489;80;21620;-78
2021/01/31 11:27:50;;;;;;;13.32;8.13;;;;;;;7.88;41.38;99711.40;1780431;80;21105;-77
2021/01/31 11:30:18;;;;;;;13.80;9.45;;;;;;;7.89;41.23;99711.73;1761048;81;21164;-76
2021/01/31 11:32:46;;;;;;;12.13;7.70;;;;;;;7.87;41.12;99712.40;1784705;80;21433;-77
2021/01/31 11:35:14;;;;;;;12.10;7.80;;;;;;;7.86;40.84;99714.73;1785333;80;21133;-78
2021/01/31 11:37:42;;;;;;;11.83;8.13;;;;;;;7.81;40.66;99719.68;1754012;81;21086;-78
2021/01/31 11:40:12;;;;;;;13.30;7.58;;;;;;;7.83;40.86;99721.20;1781435;80;21097;-77
2021/01/31 11:42:40;;;;;;;12.10;8.40;;;;;;;7.82;40.95;99722.70;1770998;80;21134;-77
2021/01/31 11:45:09;;;;;;;12.55;8.33;;;;;;;7.83;40.96;99732.38;1768888;80;21432;-77
2021/01/31 11:47:37;;;;;;;13.28;8.60;;;;;;;7.85;40.96;99737.03;1776336;80;21129;-77
2021/01/31 11:50:07;;;;;;;13.35;9.03;;;;;;;7.82;40.96;99734.70;1769113;80;21080;-79
2021/01/31 11:52:35;;;;;;;12.43;8.70;;;;;;;7.82;40.93;99742.20;1765848;80;21208;-80
2021/01/31 11:55:05;;;;;;;11.97;8.75;;;;;;;7.82;40.68;99741.37;1761358;81;21105;-78
2021/01/31 11:57:37;;;;;;;13.43;8.73;;;;;;;7.79;40.58;99746.51;1766226;80;21444;-78
2021/01/31 12:00:10;;;;;;;11.78;7.80;;;;;;;7.77;40.56;99743.18;1761394;81;21148;-78
2021/01/31 12:02:41;;;;;;;10.98;7.85;;;;;;;7.76;40.34;99751.31;1761970;81;21164;-79
2021/01/31 12:05:12;;;;;;;16.20;8.18;;;;;;;7.72;40.59;99754.81;1774352;80;21561;-78
2021/01/31 12:07:40;;;;;;;11.18;7.40;;;;;;;7.70;40.30;99755.95;1752367;80;21134;-78
2021/01/31 12:10:10;;;;;;;11.88;7.72;;;;;;;7.66;40.34;99747.92;1782294;80;21710;-78